Time;durP1;ratioP1;P1;durP2;ratioP2;P2;SDS_P1;SDS_P2;PMS_P1;PMS_P2;Temp;Humidity;BMP_temperature;BMP_pressure;BME280_temperature;BME280_humidity;BME280_pressure;Samples;Min_cycle;Max_cycle;Signal;HPM_P1;HPM_P2
2022/01/14 06:22:11;;;;;;;;;;;;;;;2.25;56.00;99996.19;6223639;22;19971;-68
2022/01/14 06:24:41;;;;;;;;;;;;;;;2.32;54.64;99996.63;6248209;23;19950;-68
2022/01/14 06:27:08;;;;;;;;;;;;;;;2.34;54.88;99995.19;6222976;23;19946;-68
2022/01/14 06:29:35;;;;;;;;;;;;;;;2.39;54.72;100005.31;6223147;23;19953;-67
2022/01/14 06:32:03;;;;;;;;;;;;;;;2.39;54.79;99992.34;6249231;23;19968;-68
2022/01/14 06:34:30;;;;;;;;;;;;;;;2.48;54.62;99997.97;6249232;23;19951;-67
2022/01/14 06:36:59;;;;;;;;;;;;;;;2.51;54.46;99989.09;6249203;23;19955;-67
2022/01/14 06:39:27;;;;;;;;;;;;;;;2.53;54.09;99986.84;6243993;23;19956;-68
2022/01/14 06:41:54;;;;;;;;;;;;;;;2.52;55.19;99988.78;6245876;23;20156;-67
2022/01/14 06:44:21;;;;;;;;;;;;;;;2.52;55.52;99985.19;6248626;23;20210;-67
2022/01/14 06:46:48;;;;;;;;;;;;;;;2.50;55.60;99992.97;6248580;23;19945;-68
2022/01/14 06:49:16;;;;;;;;;;;;;;;2.52;55.34;99987.94;6248137;23;19964;-68
2022/01/14 06:51:43;;;;;;;;;;;;;;;2.58;54.85;99989.50;6248088;23;19962;-68
2022/01/14 06:54:11;;;;;;;;;;;;;;;2.59;54.14;99988.41;6248601;23;19975;-67
2022/01/14 06:56:38;;;;;;;;;;;;;;;2.61;53.70;99986.16;6249670;23;20296;-67
2022/01/14 06:59:09;;;;;;;;;;;;;;;2.67;52.31;99982.16;6247757;23;19952;-68
2022/01/14 07:01:36;;;;;;;;;;;;;;;2.72;52.07;99982.06;6247794;23;19955;-68
2022/01/14 07:04:03;;;;;;;;;;;;;;;2.74;52.60;99971.50;6247523;23;20210;-68
2022/01/14 07:06:30;;;;;;;;;;;;;;;2.79;51.22;99979.69;6246661;23;19946;-67
2022/01/14 07:08:58;;;;;;;;;;;;;;;2.88;50.34;99982.59;6245510;23;19961;-68
2022/01/14 07:11:30;;;;;;;;;;;;;;;2.99;49.67;99979.31;6245660;23;19973;-68
2022/01/14 07:13:57;;;;;;;;;;;;;;;3.10;49.67;99983.53;6244414;23;19951;-69
2022/01/14 07:16:25;;;;;;;;;;;;;;;3.17;49.67;99978.41;6244382;23;19943;-68
2022/01/14 07:18:52;;;;;;;;;;;;;;;3.22;49.34;99972.75;6246211;23;19946;-68
2022/01/14 07:21:19;;;;;;;;;;;;;;;3.35;52.31;99976.59;6244759;23;20306;-68
2022/01/14 07:23:47;;;;;;;;;;;;;;;3.59;49.71;99973.59;6246232;23;20290;-68
2022/01/14 07:26:14;;;;;;;;;;;;;;;3.85;48.95;99978.25;6249137;23;19940;-67
2022/01/14 07:28:41;;;;;;;;;;;;;;;4.22;47.67;99979.00;6247762;23;19948;-68
2022/01/14 07:31:12;;;;;;;;;;;;;;;4.75;46.22;99976.22;6247112;23;19972;-68
2022/01/14 07:33:39;;;;;;;;;;;;;;;5.62;44.43;99976.16;6247603;23;20183;-68
2022/01/14 07:36:06;;;;;;;;;;;;;;;7.08;39.62;99968.44;6247662;23;20383;-68
2022/01/14 07:38:34;;;;;;;;;;;;;;;9.33;36.28;99981.69;6246656;23;20001;-68
2022/01/14 07:41:01;;;;;;;;;;;;;;;11.56;33.52;99980.50;6246423;23;20373;-68
2022/01/14 07:43:29;;;;;;;;;;;;;;;13.96;29.25;99986.06;6247821;23;20302;-68
2022/01/14 07:45:56;;;;;;;;;;;;;;;16.25;27.22;99976.31;6246377;23;19952;-68
2022/01/14 07:48:23;;;;;;;;;;;;;;;18.12;24.25;99983.09;6248062;23;19950;-68
2022/01/14 07:50:51;;;;;;;;;;;;;;;19.78;22.52;99981.44;6248227;23;19948;-69
2022/01/14 07:53:18;;;;;;;;;;;;;;;20.81;20.80;99979.06;6247941;23;19954;-68
2022/01/14 07:55:46;;;;;;;;;;;;;;;21.93;19.80;99979.44;6247555;23;19945;-69
2022/01/14 07:58:14;;;;;;;;;;;;;;;22.87;18.61;99980.84;6248434;23;19946;-69
2022/01/14 08:00:41;;;;;;;;;;;;;;;23.75;17.68;99981.66;6249256;23;20308;-66
2022/01/14 08:03:09;;;;;;;;;;;;;;;24.61;17.05;99972.41;6248508;23;19965;-66
2022/01/14 08:05:36;;;;;;;;;;;;;;;25.14;16.71;99970.81;6247617;23;19938;-66
2022/01/14 08:08:07;;;;;;;;;;;;;;;25.63;15.92;99971.34;6248533;23;20222;-66
2022/01/14 08:10:35;;;;;;;;;;;;;;;26.15;15.08;99988.81;6246236;23;19946;-66
2022/01/14 08:13:03;;;;;;;;;;;;;;;26.65;14.88;99980.00;6247914;23;20347;-66
2022/01/14 08:15:31;;;;;;;;;;;;;;;27.31;14.69;99987.28;6247073;23;20290;-66
2022/01/14 08:18:00;;;;;;;;;;;;;;;27.48;14.68;99984.22;6222250;23;19942;-67
2022/01/14 08:20:28;;;;;;;;;;;;;;;28.11;14.24;99983.66;6247204;23;20363;-66
2022/01/14 08:22:55;;;;;;;;;;;;;;;28.60;13.98;99987.22;6248558;23;19977;-67
2022/01/14 08:25:22;;;;;;;;;;;;;;;28.70;13.67;99974.44;6247808;23;19938;-66
2022/01/14 08:27:50;;;;;;;;;;;;;;;29.20;13.39;99976.59;6247764;23;19998;-66
2022/01/14 08:30:17;;;;;;;;;;;;;;;29.57;12.88;99976.44;6221008;23;19948;-67
2022/01/14 08:32:45;;;;;;;;;;;;;;;28.98;12.91;99960.78;6247682;23;19966;-67
2022/01/14 08:35:12;;;;;;;;;;;;;;;27.65;13.63;99960.50;6247441;23;19939;-67
2022/01/14 08:37:39;;;;;;;;;;;;;;;25.77;14.29;99957.34;6246715;23;19937;-67
2022/01/14 08:40:08;;;;;;;;;;;;;;;24.36;15.59;99944.50;6245092;23;19950;-68
2022/01/14 08:42:36;;;;;;;;;;;;;;;23.33;17.87;99954.91;6245660;23;19943;-72
2022/01/14 08:45:04;;;;;;;;;;;;;;;21.69;18.60;99942.81;6247345;23;20002;-68
2022/01/14 08:47:31;;;;;;;;;;;;;;;20.51;20.49;99933.59;6248141;23;19962;-69
2022/01/14 08:49:59;;;;;;;;;;;;;;;19.30;21.71;99931.13;6221214;23;19942;-69
2022/01/14 08:52:27;;;;;;;;;;;;;;;18.67;22.31;99928.72;6247128;23;19965;-69
2022/01/14 08:54:54;;;;;;;;;;;;;;;17.28;22.55;99929.41;6247832;23;20204;-69
2022/01/14 08:57:23;;;;;;;;;;;;;;;16.00;23.47;99922.56;6247137;23;20492;-68
2022/01/14 08:59:51;;;;;;;;;;;;;;;15.02;23.58;99917.78;6248015;23;19942;-68
2022/01/14 09:02:18;;;;;;;;;;;;;;;14.20;25.38;99914.44;6247286;23;19945;-69
2022/01/14 09:04:45;;;;;;;;;;;;;;;13.05;26.80;99915.94;6247226;23;19951;-68
2022/01/14 09:07:13;;;;;;;;;;;;;;;12.40;27.68;99908.69;6246239;23;19955;-68
2022/01/14 09:09:40;;;;;;;;;;;;;;;11.99;27.88;99915.84;6243045;23;19953;-68
2022/01/14 09:12:11;;;;;;;;;;;;;;;11.99;27.46;99912.25;6245880;23;19975;-68
2022/01/14 09:14:38;;;;;;;;;;;;;;;11.66;28.34;99907.09;6247324;23;19957;-68
2022/01/14 09:17:05;;;;;;;;;;;;;;;11.22;29.72;99912.06;6247240;23;19941;-69
2022/01/14 09:19:33;;;;;;;;;;;;;;;10.86;30.60;99906.75;6246862;23;20212;-68
2022/01/14 09:22:00;;;;;;;;;;;;;;;10.76;30.77;99910.88;6246572;23;20036;-68
2022/01/14 09:24:42;;;;;;;;;;;;;;;10.66;30.64;99919.81;6246948;23;19943;-68
2022/01/14 09:27:09;;;;;;;;;;;;;;;10.44;32.32;99918.44;6246417;23;19944;-68
2022/01/14 09:29:37;;;;;;;;;;;;;;;10.40;31.54;99922.31;6248502;23;19948;-68
2022/01/14 09:32:05;;;;;;;;;;;;;;;10.28;31.59;99920.38;6246932;23;19960;-68
2022/01/14 09:34:34;;;;;;;;;;;;;;;10.36;32.45;99927.00;6246812;23;20213;-68
2022/01/14 09:37:01;;;;;;;;;;;;;;;10.27;33.57;99923.56;6246728;23;19945;-68
2022/01/14 09:39:31;;;;;;;;;;;;;;;10.44;33.28;99926.81;6246203;23;19984;-68
2022/01/14 09:41:59;;;;;;;;;;;;;;;10.49;31.62;99920.97;6247265;23;19950;-68
2022/01/14 09:44:26;;;;;;;;;;;;;;;10.52;32.22;99923.06;6250384;23;19952;-68
2022/01/14 09:46:54;;;;;;;;;;;;;;;10.45;31.85;99919.25;6249155;23;19957;-68
2022/01/14 09:49:22;;;;;;;;;;;;;;;10.44;32.38;99917.63;6248171;23;20196;-68
2022/01/14 09:51:49;;;;;;;;;;;;;;;10.52;31.86;99919.44;6248406;23;19946;-68
2022/01/14 09:54:16;;;;;;;;;;;;;;;10.63;32.36;99914.13;6248571;23;19939;-68
2022/01/14 09:56:44;;;;;;;;;;;;;;;10.65;32.19;99907.00;6248109;23;19953;-68
2022/01/14 09:59:12;;;;;;;;;;;;;;;10.74;31.64;99910.44;6247955;23;19956;-68
2022/01/14 10:01:41;;;;;;;;;;;;;;;10.77;32.46;99903.31;6247470;23;20173;-68
2022/01/14 10:04:19;;;;;;;;;;;;;;;10.83;31.64;99904.69;6247613;23;19948;-68
2022/01/14 10:06:47;;;;;;;;;;;;;;;10.85;31.69;99896.72;6222359;23;19950;-68
2022/01/14 10:09:21;;;;;;;;;;;;;;;11.00;31.14;99891.13;6246316;23;19951;-68
2022/01/14 10:11:59;;;;;;;;;;;;;;;11.08;31.16;99892.09;6258065;23;19969;-68
2022/01/14 10:14:27;;;;;;;;;;;;;;;11.19;30.38;99882.81;6259792;23;19952;-68
2022/01/14 10:16:59;;;;;;;;;;;;;;;11.33;31.15;99882.31;6246490;23;19951;-68
2022/01/14 10:19:28;;;;;;;;;;;;;;;11.34;31.21;99871.94;6246629;23;19951;-68
2022/01/14 10:21:56;;;;;;;;;;;;;;;11.44;29.89;99877.78;6245725;23;19980;-68
2022/01/14 10:24:26;;;;;;;;;;;;;;;11.50;30.19;99867.91;6246887;23;20354;-67
2022/01/14 10:26:56;;;;;;;;;;;;;;;11.60;30.26;99855.31;6245848;23;19956;-69
2022/01/14 10:29:27;;;;;;;;;;;;;;;11.63;29.82;99847.00;6246893;23;19939;-68
2022/01/14 10:31:58;;;;;;;;;;;;;;;11.66;29.23;99837.06;6246218;23;19939;-68
2022/01/14 10:34:25;;;;;;;;;;;;;;;11.66;29.61;99842.66;6247469;23;19940;-68
2022/01/14 10:37:11;;;;;;;;;;;;;;;11.67;29.77;99835.84;6245758;23;19971;-68
2022/01/14 10:39:48;;;;;;;;;;;;;;;11.74;28.70;99827.63;6244364;23;19946;-68
2022/01/14 10:42:21;;;;;;;;;;;;;;;11.80;28.33;99832.59;6255853;23;19956;-68
2022/01/14 10:45:09;;;;;;;;;;;;;;;12.05;27.92;99827.47;6247146;23;19955;-68
2022/01/14 10:47:36;;;;;;;;;;;;;;;12.25;28.02;99831.06;6246509;23;19980;-68
2022/01/14 10:50:04;;;;;;;;;;;;;;;12.46;28.23;99825.84;6246590;23;20289;-68
2022/01/14 10:52:31;;;;;;;;;;;;;;;12.38;27.88;99813.69;6246860;23;19968;-68
2022/01/14 10:54:59;;;;;;;;;;;;;;;12.56;27.51;99818.78;6246564;23;19945;-68
2022/01/14 10:57:27;;;;;;;;;;;;;;;12.62;27.48;99815.28;6247669;23;19948;-68
2022/01/14 10:59:56;;;;;;;;;;;;;;;12.48;27.69;99807.44;6246503;23;19955;-68
2022/01/14 11:02:31;;;;;;;;;;;;;;;12.39;27.89;99803.28;6246297;23;20325;-68
2022/01/14 11:05:05;;;;;;;;;;;;;;;12.30;27.87;99797.91;6258071;23;20484;-68
2022/01/14 11:07:33;;;;;;;;;;;;;;;12.30;28.16;99797.13;6246775;23;19943;-68
2022/01/14 11:10:00;;;;;;;;;;;;;;;12.25;28.43;99789.78;6244570;23;19944;-68
2022/01/14 11:12:29;;;;;;;;;;;;;;;12.25;28.92;99789.00;6243520;23;20315;-68
2022/01/14 11:14:57;;;;;;;;;;;;;;;12.22;28.72;99784.94;6245927;23;19943;-68
2022/01/14 11:17:24;;;;;;;;;;;;;;;12.22;28.55;99782.16;6246628;23;19953;-68
2022/01/14 11:19:56;;;;;;;;;;;;;;;12.17;28.87;99771.22;6246401;23;19945;-68
2022/01/14 11:25:10;;;;;;;;;;;;;;;12.15;30.47;99762.34;6246105;23;19946;-68
2022/01/14 11:27:38;;;;;;;;;;;;;;;12.21;30.88;99749.66;6246297;23;19944;-68
2022/01/14 11:30:12;;;;;;;;;;;;;;;12.15;31.45;99748.34;6246697;23;20212;-68
2022/01/14 11:32:55;;;;;;;;;;;;;;;12.03;29.82;99747.72;6245706;23;19953;-68
2022/01/14 11:35:24;;;;;;;;;;;;;;;12.13;30.17;99739.50;6244667;23;19947;-68
2022/01/14 11:37:51;;;;;;;;;;;;;;;12.16;29.91;99735.13;6244602;23;20325;-68
2022/01/14 11:40:19;;;;;;;;;;;;;;;12.13;31.17;99727.50;6244203;23;19949;-68
2022/01/14 11:42:51;;;;;;;;;;;;;;;12.12;30.92;99723.06;6244245;23;19937;-68
2022/01/14 11:45:57;;;;;;;;;;;;;;;12.03;30.83;99719.69;6244665;23;19953;-68
2022/01/14 11:48:34;;;;;;;;;;;;;;;11.99;31.18;99713.19;6122325;23;20218;-68
2022/01/14 11:51:08;;;;;;;;;;;;;;;12.07;32.30;99704.56;6133072;23;19965;-68
2022/01/14 11:53:37;;;;;;;;;;;;;;;12.10;31.83;99703.00;6195145;23;20241;-68
2022/01/14 11:56:25;;;;;;;;;;;;;;;12.07;31.41;99692.53;6218035;23;19943;-68
2022/01/14 11:58:52;;;;;;;;;;;;;;;12.10;31.77;99697.38;6244644;23;19957;-68
2022/01/14 12:01:32;;;;;;;;;;;;;;;12.14;31.92;99685.03;6245025;23;19954;-68
2022/01/14 12:04:01;;;;;;;;;;;;;;;12.12;31.96;99684.63;6244823;23;19947;-68
2022/01/14 12:10:09;;;;;;;;;;;;;;;12.03;32.54;99672.03;6243689;23;20083;-68
2022/01/14 12:12:37;;;;;;;;;;;;;;;11.86;33.63;99674.13;6244349;23;19944;-68
2022/01/14 12:15:04;;;;;;;;;;;;;;;11.86;33.21;99676.13;6244787;23;19967;-68
2022/01/14 12:17:41;;;;;;;;;;;;;;;11.83;33.46;99676.88;6244223;23;19948;-68
2022/01/14 12:20:14;;;;;;;;;;;;;;;11.80;33.43;99667.22;6256026;23;19974;-68
2022/01/14 12:23:03;;;;;;;;;;;;;;;11.67;33.58;99660.16;6245338;23;19992;-68
2022/01/14 12:25:40;;;;;;;;;;;;;;;11.67;33.44;99662.13;6244247;23;19947;-68
2022/01/14 12:28:18;;;;;;;;;;;;;;;11.49;33.91;99655.41;6244671;23;19941;-69
2022/01/14 12:30:57;;;;;;;;;;;;;;;11.48;33.46;99650.97;6244245;23;20484;-69
2022/01/14 12:33:53;;;;;;;;;;;;;;;11.50;33.49;99645.78;6244994;23;19965;-69
2022/01/14 12:36:22;;;;;;;;;;;;;;;11.41;34.46;99643.25;6220349;23;19970;-69
2022/01/14 12:38:49;;;;;;;;;;;;;;;11.44;34.32;99634.13;6219553;23;19949;-69
2022/01/14 12:41:21;;;;;;;;;;;;;;;11.46;34.83;99637.34;6246558;23;19938;-69
2022/01/14 12:43:53;;;;;;;;;;;;;;;11.46;34.69;99625.31;6246219;23;19949;-68
2022/01/14 12:46:37;;;;;;;;;;;;;;;11.46;34.68;99630.94;6245297;23;20379;-69
2022/01/14 12:49:32;;;;;;;;;;;;;;;11.39;35.43;99622.41;6245095;23;19954;-69
2022/01/14 12:52:09;;;;;;;;;;;;;;;11.41;34.93;99615.25;6241904;23;20178;-69
2022/01/14 12:54:38;;;;;;;;;;;;;;;11.40;35.71;99602.41;6245380;23;19976;-68
2022/01/14 12:57:06;;;;;;;;;;;;;;;11.18;36.16;99598.41;6246753;23;19935;-69
2022/01/14 12:59:40;;;;;;;;;;;;;;;11.10;36.63;99599.44;6245717;23;19949;-68
2022/01/14 13:02:07;;;;;;;;;;;;;;;11.13;36.85;99593.09;6245634;23;19942;-68
2022/01/14 13:04:35;;;;;;;;;;;;;;;11.18;37.13;99592.78;6244509;23;19948;-68
2022/01/14 13:07:03;;;;;;;;;;;;;;;11.21;37.50;99586.47;6245191;23;20252;-69
2022/01/14 13:09:31;;;;;;;;;;;;;;;11.23;37.47;99578.50;6244369;23;20252;-69
2022/01/14 13:11:59;;;;;;;;;;;;;;;11.27;36.99;99572.97;6244361;23;20297;-69
2022/01/14 13:14:31;;;;;;;;;;;;;;;11.32;36.91;99563.44;6245402;23;19970;-69
2022/01/14 13:17:01;;;;;;;;;;;;;;;11.35;36.78;99565.47;6245400;23;19953;-69
2022/01/14 13:19:33;;;;;;;;;;;;;;;11.27;36.89;99564.56;6244890;23;19938;-69
2022/01/14 13:22:07;;;;;;;;;;;;;;;11.20;37.20;99562.44;6243832;23;20583;-69
2022/01/14 13:24:36;;;;;;;;;;;;;;;11.09;38.01;99558.63;6244094;23;19953;-69
2022/01/14 13:27:08;;;;;;;;;;;;;;;11.09;38.27;99557.81;6243455;23;19950;-69
2022/01/14 13:29:39;;;;;;;;;;;;;;;11.02;39.16;99549.28;6245062;23;20297;-69
2022/01/14 13:32:07;;;;;;;;;;;;;;;10.96;38.88;99553.56;6244923;23;19952;-68
2022/01/14 13:34:34;;;;;;;;;;;;;;;10.94;39.10;99553.13;6244801;23;19969;-68
2022/01/14 13:37:02;;;;;;;;;;;;;;;10.88;39.88;99558.19;6244578;23;19953;-68
2022/01/14 13:39:30;;;;;;;;;;;;;;;10.81;40.61;99552.47;6244828;23;20164;-68
2022/01/14 13:41:57;;;;;;;;;;;;;;;10.80;41.11;99550.03;6218691;23;19954;-68
2022/01/14 13:44:31;;;;;;;;;;;;;;;10.73;40.97;99545.13;6245119;23;20304;-69
2022/01/14 13:47:06;;;;;;;;;;;;;;;10.65;42.88;99537.75;6244888;23;19958;-69
2022/01/14 13:49:33;;;;;;;;;;;;;;;10.53;44.10;99543.50;6245298;23;19939;-69
2022/01/14 13:52:11;;;;;;;;;;;;;;;10.44;43.66;99537.31;6245217;23;19953;-69
2022/01/14 13:54:53;;;;;;;;;;;;;;;10.43;44.13;99535.69;6245086;23;19969;-69
2022/01/14 13:57:23;;;;;;;;;;;;;;;10.47;44.66;99531.78;6244399;23;19950;-69
2022/01/14 13:59:50;;;;;;;;;;;;;;;10.51;44.14;99523.47;6243367;23;19960;-69
2022/01/14 14:02:27;;;;;;;;;;;;;;;10.45;44.27;99517.38;6244901;23;19940;-69
2022/01/14 14:04:56;;;;;;;;;;;;;;;10.42;44.25;99520.06;6245046;23;19945;-69
2022/01/14 14:07:25;;;;;;;;;;;;;;;10.39;43.80;99510.44;6244954;23;19956;-69
2022/01/14 14:10:08;;;;;;;;;;;;;;;10.37;44.12;99506.38;6244779;23;19941;-69
2022/01/14 14:12:45;;;;;;;;;;;;;;;10.31;44.83;99507.88;6244910;23;20016;-69
2022/01/14 14:18:13;;;;;;;;;;;;;;;10.22;44.32;99498.91;6179129;23;19948;-69
2022/01/14 14:20:40;;;;;;;;;;;;;;;10.17;45.57;99490.78;6243663;23;19956;-69
2022/01/14 14:23:17;;;;;;;;;;;;;;;10.14;46.06;99488.72;6245267;23;19964;-69
2022/01/14 14:25:44;;;;;;;;;;;;;;;10.16;45.73;99483.56;6245728;23;20183;-69
2022/01/14 14:28:12;;;;;;;;;;;;;;;10.19;45.36;99485.66;6247991;23;19937;-69
2022/01/14 14:30:48;;;;;;;;;;;;;;;10.22;45.65;99479.31;6220145;23;19945;-69
2022/01/14 14:33:19;;;;;;;;;;;;;;;10.20;45.28;99476.88;6246610;23;19946;-69
2022/01/14 14:35:47;;;;;;;;;;;;;;;10.16;45.89;99480.78;6246700;23;19967;-69
2022/01/14 14:38:18;;;;;;;;;;;;;;;10.11;46.23;99476.25;6246563;23;20287;-69
2022/01/14 14:40:50;;;;;;;;;;;;;;;10.06;46.55;99481.31;6246656;23;19945;-68
2022/01/14 14:43:19;;;;;;;;;;;;;;;10.04;46.06;99469.69;6246440;23;19952;-69
2022/01/14 14:45:46;;;;;;;;;;;;;;;9.99;46.05;99467.19;6245443;23;20203;-69
2022/01/14 14:48:15;;;;;;;;;;;;;;;9.96;46.72;99460.34;6245903;23;19942;-69
2022/01/14 14:50:42;;;;;;;;;;;;;;;9.94;46.83;99462.72;6219944;23;19936;-69
2022/01/14 14:53:10;;;;;;;;;;;;;;;9.90;47.52;99461.84;6245464;23;20559;-69
2022/01/14 14:55:37;;;;;;;;;;;;;;;9.88;47.12;99453.78;6245838;23;19968;-69
2022/01/14 14:58:05;;;;;;;;;;;;;;;9.92;47.15;99456.69;6246449;23;19953;-69
2022/01/14 15:00:35;;;;;;;;;;;;;;;9.86;47.73;99453.34;6256884;23;19939;-69
2022/01/14 15:03:06;;;;;;;;;;;;;;;9.86;47.29;99439.38;6246179;23;19950;-69
2022/01/14 15:05:33;;;;;;;;;;;;;;;9.82;47.81;99443.28;6246374;23;19970;-69
2022/01/14 15:08:01;;;;;;;;;;;;;;;9.76;48.55;99434.38;6246045;23;19943;-69
2022/01/14 15:10:28;;;;;;;;;;;;;;;9.72;48.29;99436.28;6245679;23;20209;-69
2022/01/14 15:12:55;;;;;;;;;;;;;;;9.71;47.72;99429.06;6246480;23;19942;-69
2022/01/14 15:18:13;;;;;;;;;;;;;;;9.56;48.50;99427.13;6190845;23;19949;-69
2022/01/14 15:20:42;;;;;;;;;;;;;;;9.54;48.84;99423.06;6245686;23;19951;-69
2022/01/14 15:23:09;;;;;;;;;;;;;;;9.49;49.21;99426.16;6246041;23;19968;-69
2022/01/14 15:25:38;;;;;;;;;;;;;;;9.42;49.11;99424.00;6246393;23;19952;-69
2022/01/14 15:28:05;;;;;;;;;;;;;;;9.43;49.46;99422.03;6246100;23;20291;-69
2022/01/14 15:30:35;;;;;;;;;;;;;;;9.35;49.77;99414.66;6246072;23;19940;-69
2022/01/14 15:33:03;;;;;;;;;;;;;;;9.25;50.59;99419.63;6246751;23;19952;-69
2022/01/14 15:35:30;;;;;;;;;;;;;;;9.14;50.26;99412.16;6245851;23;19967;-69
2022/01/14 15:38:05;;;;;;;;;;;;;;;9.03;50.86;99416.66;6246485;23;19941;-69
2022/01/14 15:40:51;;;;;;;;;;;;;;;8.93;52.43;99420.81;6256680;23;20290;-69
2022/01/14 15:43:18;;;;;;;;;;;;;;;8.83;53.95;99420.53;6245742;23;19971;-69
2022/01/14 15:45:46;;;;;;;;;;;;;;;8.78;55.20;99418.03;6247304;23;19937;-69
2022/01/14 15:48:14;;;;;;;;;;;;;;;8.68;57.70;99415.75;6246659;23;20192;-69
2022/01/14 15:50:43;;;;;;;;;;;;;;;8.52;58.54;99410.16;6245635;23;19959;-69
2022/01/14 15:53:12;;;;;;;;;;;;;;;8.47;60.51;99405.66;6246360;23;19967;-69
2022/01/14 15:55:40;;;;;;;;;;;;;;;8.40;63.38;99399.91;6247235;23;20226;-68
2022/01/14 15:58:08;;;;;;;;;;;;;;;8.25;65.24;99397.84;6245653;23;19952;-69
2022/01/14 16:00:36;;;;;;;;;;;;;;;8.13;67.07;99406.25;6245934;23;19956;-69
2022/01/14 16:03:03;;;;;;;;;;;;;;;8.08;67.47;99398.16;6246060;23;19940;-69
2022/01/14 16:05:31;;;;;;;;;;;;;;;8.04;68.52;99402.00;6245066;23;19953;-69
2022/01/14 16:07:58;;;;;;;;;;;;;;;7.97;68.86;99399.84;6244900;23;19954;-69
2022/01/14 16:10:26;;;;;;;;;;;;;;;7.90;70.73;99402.41;6244634;23;20178;-69
2022/01/14 16:12:55;;;;;;;;;;;;;;;7.82;70.90;99401.38;6247109;23;19946;-69
2022/01/14 16:15:23;;;;;;;;;;;;;;;7.75;71.98;99412.31;6246632;23;20218;-69
2022/01/14 16:17:50;;;;;;;;;;;;;;;7.72;70.13;99399.09;6245732;23;19949;-69
2022/01/14 16:20:18;;;;;;;;;;;;;;;7.70;67.63;99398.63;6245537;23;19944;-69
2022/01/14 16:22:46;;;;;;;;;;;;;;;7.62;69.14;99396.81;6246098;23;19970;-69
2022/01/14 16:25:15;;;;;;;;;;;;;;;7.51;69.54;99389.28;6245343;23;19947;-69
2022/01/14 16:27:43;;;;;;;;;;;;;;;7.45;70.12;99394.28;6244943;23;19955;-69
2022/01/14 16:30:12;;;;;;;;;;;;;;;7.29;70.63;99394.19;6245971;23;19948;-68
2022/01/14 16:32:40;;;;;;;;;;;;;;;7.18;72.19;99395.84;6245878;23;19948;-69
2022/01/14 16:35:09;;;;;;;;;;;;;;;7.08;73.32;99396.31;6245685;23;20310;-69
2022/01/14 16:37:37;;;;;;;;;;;;;;;6.98;71.93;99396.78;6245764;23;19946;-68
2022/01/14 16:40:06;;;;;;;;;;;;;;;6.94;67.55;99398.63;6245695;23;20217;-68
2022/01/14 16:42:35;;;;;;;;;;;;;;;6.91;66.89;99392.94;6245583;23;19949;-68
2022/01/14 16:45:05;;;;;;;;;;;;;;;6.86;66.86;99393.97;6245393;23;19954;-69
2022/01/14 16:47:33;;;;;;;;;;;;;;;6.84;66.21;99398.28;6245566;23;19949;-68
2022/01/14 16:50:02;;;;;;;;;;;;;;;6.81;65.86;99399.78;6245911;23;19950;-69
2022/01/14 16:52:30;;;;;;;;;;;;;;;6.81;66.01;99398.94;6246881;23;19951;-68
2022/01/14 16:54:57;;;;;;;;;;;;;;;6.80;66.36;99403.69;6245991;23;19943;-68
2022/01/14 16:57:24;;;;;;;;;;;;;;;6.78;68.18;99406.00;6245981;23;19946;-68
2022/01/14 16:59:53;;;;;;;;;;;;;;;6.76;68.14;99411.13;6244213;23;19952;-68
2022/01/14 17:02:22;;;;;;;;;;;;;;;6.81;67.10;99402.56;6246080;23;20336;-68
2022/01/14 17:04:49;;;;;;;;;;;;;;;6.83;65.08;99396.63;6247897;23;20188;-69
2022/01/14 17:07:17;;;;;;;;;;;;;;;6.81;65.71;99397.00;6247308;23;20006;-69
2022/01/14 17:09:45;;;;;;;;;;;;;;;6.76;66.27;99397.22;6247229;23;19946;-70
2022/01/14 17:12:16;;;;;;;;;;;;;;;6.75;64.03;99401.13;6248091;23;19948;-70
2022/01/14 17:14:43;;;;;;;;;;;;;;;6.82;63.99;99400.59;6258604;23;19948;-70
2022/01/14 17:17:11;;;;;;;;;;;;;;;6.83;63.02;99396.63;6247655;23;19966;-70
2022/01/14 17:19:38;;;;;;;;;;;;;;;6.83;63.43;99405.78;6247979;23;20174;-70
2022/01/14 17:22:06;;;;;;;;;;;;;;;6.85;65.50;99403.47;6246365;23;19972;-70
2022/01/14 17:24:34;;;;;;;;;;;;;;;6.85;69.00;99406.25;6247987;23;19943;-70
2022/01/14 17:27:02;;;;;;;;;;;;;;;6.85;70.34;99400.69;6248106;23;19953;-70
2022/01/14 17:29:29;;;;;;;;;;;;;;;6.88;72.77;99404.75;6247834;23;19947;-70
2022/01/14 17:31:57;;;;;;;;;;;;;;;6.84;72.36;99399.09;6247011;23;19942;-70
2022/01/14 17:34:26;;;;;;;;;;;;;;;6.80;74.04;99394.56;6247223;23;19950;-69
2022/01/14 17:36:53;;;;;;;;;;;;;;;6.72;75.99;99393.53;6247485;23;20352;-69
2022/01/14 17:39:21;;;;;;;;;;;;;;;6.73;76.18;99394.31;6247180;23;20365;-69
2022/01/14 17:41:50;;;;;;;;;;;;;;;6.74;77.10;99393.97;6221371;23;19950;-69
2022/01/14 17:44:19;;;;;;;;;;;;;;;6.74;80.21;99393.97;6247171;23;19950;-68
2022/01/14 17:46:48;;;;;;;;;;;;;;;6.76;80.83;99388.88;6245140;23;19943;-69
2022/01/14 17:49:15;;;;;;;;;;;;;;;6.82;79.65;99398.63;6247387;23;19943;-69
2022/01/14 17:51:44;;;;;;;;;;;;;;;6.84;80.59;99390.75;6248731;23;19934;-69
2022/01/14 17:54:12;;;;;;;;;;;;;;;6.88;81.77;99393.63;6247904;23;20319;-69
2022/01/14 17:56:40;;;;;;;;;;;;;;;6.90;83.09;99389.34;6247535;23;19968;-69
2022/01/14 17:59:09;;;;;;;;;;;;;;;6.92;83.52;99392.59;6248207;23;19948;-69
2022/01/14 18:01:36;;;;;;;;;;;;;;;6.94;83.06;99392.25;6249039;23;20315;-69
2022/01/14 18:04:04;;;;;;;;;;;;;;;6.93;83.41;99387.84;6249394;23;19944;-69
2022/01/14 18:06:32;;;;;;;;;;;;;;;6.90;83.46;99389.34;6249171;23;19949;-69
2022/01/14 18:09:01;;;;;;;;;;;;;;;6.92;84.45;99389.81;6249352;23;20392;-69
2022/01/14 18:11:32;;;;;;;;;;;;;;;6.83;89.53;99391.06;6248709;23;19954;-69
2022/01/14 18:14:04;;;;;;;;;;;;;;;6.78;92.29;99386.56;6249087;23;19956;-69
2022/01/14 18:16:32;;;;;;;;;;;;;;;6.80;92.27;99381.47;6249300;23;19969;-69
2022/01/14 18:19:00;;;;;;;;;;;;;;;6.83;92.62;99382.72;6249489;23;19972;-69
2022/01/14 18:21:28;;;;;;;;;;;;;;;6.90;92.79;99383.78;6250542;23;20198;-69
2022/01/14 18:23:55;;;;;;;;;;;;;;;6.98;93.18;99380.09;6250890;23;20338;-69
2022/01/14 18:26:23;;;;;;;;;;;;;;;7.04;95.09;99378.69;6251598;23;19952;-69
2022/01/14 18:28:50;;;;;;;;;;;;;;;7.12;97.08;99374.97;6250321;23;19943;-76
2022/01/14 18:31:17;;;;;;;;;;;;;;;7.17;98.92;99377.53;6250695;23;19948;-70
2022/01/14 18:33:45;;;;;;;;;;;;;;;7.19;100.00;99375.19;6251038;23;19943;-70
2022/01/14 18:36:16;;;;;;;;;;;;;;;7.18;100.00;99375.56;6250362;23;19960;-70
2022/01/14 18:38:45;;;;;;;;;;;;;;;7.20;100.00;99374.03;6251171;23;19942;-70
2022/01/14 18:41:12;;;;;;;;;;;;;;;7.23;100.00;99378.09;6252213;23;19948;-70
2022/01/14 18:43:46;;;;;;;;;;;;;;;7.22;100.00;99380.06;6250564;23;20296;-71
2022/01/14 18:46:14;;;;;;;;;;;;;;;7.27;100.00;99373.44;6261994;23;20116;-70
2022/01/14 18:48:42;;;;;;;;;;;;;;;7.31;100.00;99376.34;6250230;23;19954;-71
2022/01/14 18:51:10;;;;;;;;;;;;;;;7.34;100.00;99370.88;6252147;23;19939;-70
2022/01/14 18:53:37;;;;;;;;;;;;;;;7.31;100.00;99368.00;6251959;23;20014;-71
2022/01/14 18:56:05;;;;;;;;;;;;;;;7.35;100.00;99366.94;6250391;23;19967;-70
2022/01/14 18:58:32;;;;;;;;;;;;;;;7.32;100.00;99367.66;6248982;23;19948;-70
2022/01/14 19:01:00;;;;;;;;;;;;;;;7.30;100.00;99378.31;6249817;23;19942;-71
2022/01/14 19:03:28;;;;;;;;;;;;;;;7.30;100.00;99364.41;6250739;23;19944;-70
2022/01/14 19:05:55;;;;;;;;;;;;;;;7.25;100.00;99371.03;6252389;23;19949;-69
2022/01/14 19:08:22;;;;;;;;;;;;;;;7.24;100.00;99354.66;6252313;23;20004;-70
2022/01/14 19:10:50;;;;;;;;;;;;;;;7.23;100.00;99365.00;6250781;23;19950;-70
2022/01/14 19:13:19;;;;;;;;;;;;;;;7.20;100.00;99365.69;6223891;23;19947;-69
2022/01/14 19:15:48;;;;;;;;;;;;;;;7.22;100.00;99366.16;6261791;23;19934;-68
2022/01/14 19:18:16;;;;;;;;;;;;;;;7.24;100.00;99363.00;6252304;23;19979;-68
2022/01/14 19:20:43;;;;;;;;;;;;;;;7.24;100.00;99357.44;6249385;23;19947;-68
2022/01/14 19:23:11;;;;;;;;;;;;;;;7.18;100.00;99368.03;6249188;23;19968;-66
2022/01/14 19:25:38;;;;;;;;;;;;;;;7.12;100.00;99360.25;6249284;23;19945;-66
2022/01/14 19:28:06;;;;;;;;;;;;;;;7.04;100.00;99362.00;6249811;23;19944;-66
2022/01/14 19:30:33;;;;;;;;;;;;;;;7.02;100.00;99363.50;6249454;23;19958;-67
2022/01/14 19:33:01;;;;;;;;;;;;;;;7.01;100.00;99362.72;6249184;23;20293;-67
2022/01/14 19:35:28;;;;;;;;;;;;;;;7.03;100.00;99365.94;6251045;23;19944;-68